Country
Station

 

Weather  for  Auckland Airport  -  New Zealand    New Zealand

  
18 °C (64 °F)
    
 
 

Current METAR for Auckland Airport is :

NZAA 111900Z AUTO 36001KT 9999 SCT016/// BKN055/// 18/15 Q1013 NOSIG

 

This is a report for Auckland Airport - New Zealand.
 
The report was made 27 minutes ago, at 19:00 UTC .
The wind was blowing at a speed of 0.5 meters per second (1.2 miles per hour) from north (360°).
 
The temperature was 18 °C (64 °F), with a dew-point at 15 °C (59 °F).
The atmospheric pressure was 1013 hPa (29.91 inHg).
The relative humidity was 82.6%.
 
The overall visibility was greater than 10 kilometers (6.2 miles).
 

 
 
 
 

Country :   A   B   C   D   E   F   G   H   I   J   K   L   M   N   O   P   Q   R   S   T   U   V   W   Y   Z

 

Site Info  |  Disclaimer  |  Credits  |  Privacy
Contact us  |  Add to favorites
© 2013-2018 METARs - All rights reserved